sensor_id;sensor_type;location;lat;lon;timestamp;pressure;altitude;pressure_sealevel;temperature;humidity
76128;BME280;64873;50.102;14.434;2023-09-19T00:00:58;98724.03;;;17.52;85.50
76128;BME280;64873;50.102;14.434;2023-09-19T00:03:24;98719.09;;;17.69;84.19
76128;BME280;64873;50.102;14.434;2023-09-19T00:05:50;98722.91;;;17.68;83.73
76128;BME280;64873;50.102;14.434;2023-09-19T00:08:16;98719.44;;;17.52;84.02
76128;BME280;64873;50.102;14.434;2023-09-19T00:10:42;98732.13;;;17.57;83.80
76128;BME280;64873;50.102;14.434;2023-09-19T00:13:08;98731.03;;;17.58;83.22
76128;BME280;64873;50.102;14.434;2023-09-19T00:15:45;98733.25;;;17.41;83.25
76128;BME280;64873;50.102;14.434;2023-09-19T00:18:14;98717.84;;;17.46;82.54
76128;BME280;64873;50.102;14.434;2023-09-19T00:20:41;98735.13;;;17.50;81.96
76128;BME280;64873;50.102;14.434;2023-09-19T00:23:07;98734.59;;;17.48;81.73
76128;BME280;64873;50.102;14.434;2023-09-19T00:25:36;98737.59;;;17.37;82.20
76128;BME280;64873;50.102;14.434;2023-09-19T00:28:03;98744.63;;;17.27;82.64
76128;BME280;64873;50.102;14.434;2023-09-19T00:30:29;98738.69;;;17.30;82.39
76128;BME280;64873;50.102;14.434;2023-09-19T00:32:55;98746.75;;;17.41;81.68
76128;BME280;64873;50.102;14.434;2023-09-19T00:35:21;98755.41;;;17.43;80.61
76128;BME280;64873;50.102;14.434;2023-09-19T00:37:50;98746.50;;;17.37;80.68
76128;BME280;64873;50.102;14.434;2023-09-19T00:40:16;98757.03;;;17.39;80.71
76128;BME280;64873;50.102;14.434;2023-09-19T00:42:43;98744.34;;;17.34;80.73
76128;BME280;64873;50.102;14.434;2023-09-19T00:45:09;98747.31;;;17.32;80.16
76128;BME280;64873;50.102;14.434;2023-09-19T00:47:41;98756.47;;;17.47;80.22
76128;BME280;64873;50.102;14.434;2023-09-19T00:50:08;98750.00;;;17.48;79.76
76128;BME280;64873;50.102;14.434;2023-09-19T00:52:35;98765.16;;;17.33;80.15
76128;BME280;64873;50.102;14.434;2023-09-19T00:55:06;98743.31;;;17.15;80.46
76128;BME280;64873;50.102;14.434;2023-09-19T00:57:33;98746.00;;;17.25;81.05
76128;BME280;64873;50.102;14.434;2023-09-19T01:00:00;98751.13;;;17.11;81.09
76128;BME280;64873;50.102;14.434;2023-09-19T01:02:31;98728.50;;;16.97;81.96
76128;BME280;64873;50.102;14.434;2023-09-19T01:04:58;98732.81;;;16.88;82.25
76128;BME280;64873;50.102;14.434;2023-09-19T01:07:23;98729.00;;;16.94;82.35
76128;BME280;64873;50.102;14.434;2023-09-19T01:09:49;98734.97;;;16.96;82.60
76128;BME280;64873;50.102;14.434;2023-09-19T01:12:18;98743.59;;;17.03;82.35
76128;BME280;64873;50.102;14.434;2023-09-19T01:14:59;98746.56;;;17.01;82.19
76128;BME280;64873;50.102;14.434;2023-09-19T01:17:34;98745.22;;;17.04;81.80
76128;BME280;64873;50.102;14.434;2023-09-19T01:28:30;98746.28;;;16.93;82.39
76128;BME280;64873;50.102;14.434;2023-09-19T01:31:02;98741.47;;;16.95;82.19
76128;BME280;64873;50.102;14.434;2023-09-19T01:33:28;98741.13;;;17.12;81.27
76128;BME280;64873;50.102;14.434;2023-09-19T01:35:59;98731.19;;;16.97;81.39
76128;BME280;64873;50.102;14.434;2023-09-19T01:38:25;98732.81;;;16.98;81.92
76128;BME280;64873;50.102;14.434;2023-09-19T01:41:11;98730.63;;;17.05;80.95
76128;BME280;64873;50.102;14.434;2023-09-19T01:43:42;98723.63;;;17.04;81.17
76128;BME280;64873;50.102;14.434;2023-09-19T01:51:53;98722.81;;;16.93;81.25
76128;BME280;64873;50.102;14.434;2023-09-19T01:54:27;98713.38;;;16.91;80.91
76128;BME280;64873;50.102;14.434;2023-09-19T01:57:09;98736.00;;;17.20;80.44
76128;BME280;64873;50.102;14.434;2023-09-19T01:59:45;98719.53;;;17.12;80.08
76128;BME280;64873;50.102;14.434;2023-09-19T02:02:14;98737.88;;;17.30;79.44
76128;BME280;64873;50.102;14.434;2023-09-19T02:04:40;98725.50;;;17.09;80.00
76128;BME280;64873;50.102;14.434;2023-09-19T02:07:06;98734.34;;;17.29;79.44
76128;BME280;64873;50.102;14.434;2023-09-19T02:09:33;98734.94;;;17.21;80.08
76128;BME280;64873;50.102;14.434;2023-09-19T02:12:01;98713.84;;;17.28;79.41
76128;BME280;64873;50.102;14.434;2023-09-19T02:14:29;98719.25;;;17.28;79.42
76128;BME280;64873;50.102;14.434;2023-09-19T02:16:55;98713.84;;;17.28;79.35
76128;BME280;64873;50.102;14.434;2023-09-19T02:19:21;98724.63;;;17.28;79.35
76128;BME280;64873;50.102;14.434;2023-09-19T02:21:46;98719.22;;;17.39;79.30
76128;BME280;64873;50.102;14.434;2023-09-19T02:24:14;98697.91;;;17.32;79.28
76128;BME280;64873;50.102;14.434;2023-09-19T02:26:40;98727.31;;;17.44;79.18
76128;BME280;64873;50.102;14.434;2023-09-19T02:29:05;98721.63;;;17.50;78.93
76128;BME280;64873;50.102;14.434;2023-09-19T02:31:31;98722.94;;;17.53;78.61
76128;BME280;64873;50.102;14.434;2023-09-19T02:33:56;98731.63;;;17.50;78.46
76128;BME280;64873;50.102;14.434;2023-09-19T02:36:22;98717.03;;;17.41;78.62
76128;BME280;64873;50.102;14.434;2023-09-19T02:38:49;98712.22;;;17.38;78.54
76128;BME280;64873;50.102;14.434;2023-09-19T02:41:14;98713.78;;;17.49;78.40
76128;BME280;64873;50.102;14.434;2023-09-19T02:43:39;98717.00;;;17.51;77.99
76128;BME280;64873;50.102;14.434;2023-09-19T02:46:05;98720.78;;;17.60;77.87
76128;BME280;64873;50.102;14.434;2023-09-19T02:48:30;98707.88;;;17.42;78.08
76128;BME280;64873;50.102;14.434;2023-09-19T02:50:57;98721.28;;;17.67;77.37
76128;BME280;64873;50.102;14.434;2023-09-19T02:53:23;98721.56;;;17.71;77.33
76128;BME280;64873;50.102;14.434;2023-09-19T02:55:49;98715.91;;;17.57;77.94
76128;BME280;64873;50.102;14.434;2023-09-19T02:58:14;98710.00;;;17.55;77.66
76128;BME280;64873;50.102;14.434;2023-09-19T03:00:40;98720.78;;;17.60;77.35
76128;BME280;64873;50.102;14.434;2023-09-19T03:03:07;98719.09;;;17.69;77.16
76128;BME280;64873;50.102;14.434;2023-09-19T03:05:34;98712.13;;;17.58;76.91
76128;BME280;64873;50.102;14.434;2023-09-19T03:08:00;98720.81;;;17.50;77.38
76128;BME280;64873;50.102;14.434;2023-09-19T03:10:26;98725.09;;;17.56;77.12
76128;BME280;64873;50.102;14.434;2023-09-19T03:12:52;98712.44;;;17.41;77.05
76128;BME280;64873;50.102;14.434;2023-09-19T03:15:17;98730.81;;;17.49;77.51
76128;BME280;64873;50.102;14.434;2023-09-19T03:17:44;98698.22;;;17.20;77.82
76128;BME280;64873;50.102;14.434;2023-09-19T03:20:10;98720.81;;;17.50;77.53
76128;BME280;64873;50.102;14.434;2023-09-19T03:22:38;98736.72;;;17.56;77.10
76128;BME280;64873;50.102;14.434;2023-09-19T03:25:04;98737.00;;;17.50;77.49
76128;BME280;64873;50.102;14.434;2023-09-19T03:27:33;98721.31;;;17.52;77.05
76128;BME280;64873;50.102;14.434;2023-09-19T03:29:59;98734.88;;;17.42;77.81
76128;BME280;64873;50.102;14.434;2023-09-19T03:32:24;98735.44;;;17.33;78.36
76128;BME280;64873;50.102;14.434;2023-09-19T03:34:49;98739.75;;;17.29;78.85
76128;BME280;64873;50.102;14.434;2023-09-19T03:37:15;98720.34;;;17.22;78.76
76128;BME280;64873;50.102;14.434;2023-09-19T03:39:40;98721.44;;;17.16;79.02
76128;BME280;64873;50.102;14.434;2023-09-19T03:42:06;98739.78;;;17.24;78.87
76128;BME280;64873;50.102;14.434;2023-09-19T03:44:32;98714.13;;;17.12;78.60
76128;BME280;64873;50.102;14.434;2023-09-19T03:46:58;98729.50;;;17.31;78.25
76128;BME280;64873;50.102;14.434;2023-09-19T03:49:23;98734.66;;;17.18;79.17
76128;BME280;64873;50.102;14.434;2023-09-19T03:51:49;98740.34;;;17.11;79.37
76128;BME280;64873;50.102;14.434;2023-09-19T03:54:14;98745.75;;;17.06;79.42
76128;BME280;64873;50.102;14.434;2023-09-19T03:56:39;98740.09;;;17.08;79.81
76128;BME280;64873;50.102;14.434;2023-09-19T03:59:05;98740.63;;;17.04;80.04
76128;BME280;64873;50.102;14.434;2023-09-19T04:01:30;98732.53;;;16.99;80.09
76128;BME280;64873;50.102;14.434;2023-09-19T04:03:58;98748.72;;;17.10;79.96
76128;BME280;64873;50.102;14.434;2023-09-19T04:06:33;98730.91;;;17.09;79.50
76128;BME280;64873;50.102;14.434;2023-09-19T04:08:58;98754.69;;;17.07;79.71
76128;BME280;64873;50.102;14.434;2023-09-19T04:11:24;98754.31;;;17.44;77.99
76128;BME280;64873;50.102;14.434;2023-09-19T04:13:49;98762.66;;;17.52;77.45
76128;BME280;64873;50.102;14.434;2023-09-19T04:16:14;98749.44;;;17.51;77.83
76128;BME280;64873;50.102;14.434;2023-09-19T04:18:40;98748.44;;;17.16;79.05
76128;BME280;64873;50.102;14.434;2023-09-19T04:21:05;98753.81;;;17.26;78.78
76128;BME280;64873;50.102;14.434;2023-09-19T04:23:31;98746.00;;;17.25;78.76
76128;BME280;64873;50.102;14.434;2023-09-19T04:25:57;98756.00;;;17.14;79.28
76128;BME280;64873;50.102;14.434;2023-09-19T04:28:23;98767.63;;;17.15;80.04
76128;BME280;64873;50.102;14.434;2023-09-19T04:30:49;98761.94;;;17.11;80.02
76128;BME280;64873;50.102;14.434;2023-09-19T04:33:15;98758.69;;;17.24;79.13
76128;BME280;64873;50.102;14.434;2023-09-19T04:35:40;98785.34;;;17.56;77.96
76128;BME280;64873;50.102;14.434;2023-09-19T04:38:08;98777.03;;;17.27;79.34
76128;BME280;64873;50.102;14.434;2023-09-19T04:40:33;98788.41;;;17.19;79.70
76128;BME280;64873;50.102;14.434;2023-09-19T04:42:59;98772.72;;;17.42;78.28
76128;BME280;64873;50.102;14.434;2023-09-19T04:45:26;98791.03;;;17.50;78.32
76128;BME280;64873;50.102;14.434;2023-09-19T04:47:52;98799.97;;;17.35;78.98
76128;BME280;64873;50.102;14.434;2023-09-19T04:50:19;98799.44;;;17.48;78.35
76128;BME280;64873;50.102;14.434;2023-09-19T04:52:49;98794.31;;;17.37;79.09
76128;BME280;64873;50.102;14.434;2023-09-19T04:55:16;98811.06;;;17.23;79.94
76128;BME280;64873;50.102;14.434;2023-09-19T04:57:51;98815.13;;;17.31;79.07
76128;BME280;64873;50.102;14.434;2023-09-19T05:00:22;98822.41;;;17.36;79.43
76128;BME280;64873;50.102;14.434;2023-09-19T05:02:55;98823.47;;;17.40;78.91
76128;BME280;64873;50.102;14.434;2023-09-19T05:05:24;98823.47;;;17.50;78.42
76128;BME280;64873;50.102;14.434;2023-09-19T05:07:50;98813.22;;;17.37;78.38
76128;BME280;64873;50.102;14.434;2023-09-19T05:10:16;98808.06;;;17.40;78.14
76128;BME280;64873;50.102;14.434;2023-09-19T05:12:44;98808.91;;;17.30;78.73
76128;BME280;64873;50.102;14.434;2023-09-19T05:15:12;98828.34;;;17.38;78.75
76128;BME280;64873;50.102;14.434;2023-09-19T05:17:37;98820.53;;;17.36;78.65
76128;BME280;64873;50.102;14.434;2023-09-19T05:20:04;98835.91;;;17.41;78.43
76128;BME280;64873;50.102;14.434;2023-09-19T05:22:41;98828.88;;;17.40;78.35
76128;BME280;64873;50.102;14.434;2023-09-19T05:25:07;98818.63;;;17.37;78.29
76128;BME280;64873;50.102;14.434;2023-09-19T05:27:32;98824.28;;;17.35;78.08
76128;BME280;64873;50.102;14.434;2023-09-19T05:29:59;98840.22;;;17.47;78.29
76128;BME280;64873;50.102;14.434;2023-09-19T05:32:24;98836.44;;;17.43;78.19
76128;BME280;64873;50.102;14.434;2023-09-19T05:34:50;98839.97;;;17.43;78.54
76128;BME280;64873;50.102;14.434;2023-09-19T05:37:18;98837.50;;;17.47;78.03
76128;BME280;64873;50.102;14.434;2023-09-19T05:39:44;98824.28;;;17.35;78.20
76128;BME280;64873;50.102;14.434;2023-09-19T05:42:11;98845.09;;;17.50;77.39
76128;BME280;64873;50.102;14.434;2023-09-19T05:44:36;98852.09;;;17.51;77.65
76128;BME280;64873;50.102;14.434;2023-09-19T05:47:03;98827.53;;;17.42;77.58
76128;BME280;64873;50.102;14.434;2023-09-19T05:49:28;98844.53;;;17.53;77.65
76128;BME280;64873;50.102;14.434;2023-09-19T05:51:54;98834.50;;;17.58;77.32
76128;BME280;64873;50.102;14.434;2023-09-19T05:54:21;98819.69;;;17.46;77.61
76128;BME280;64873;50.102;14.434;2023-09-19T05:56:47;98839.69;;;17.50;77.87
76128;BME280;64873;50.102;14.434;2023-09-19T05:59:14;98844.00;;;17.56;78.08
76128;BME280;64873;50.102;14.434;2023-09-19T06:01:42;98846.16;;;17.54;77.69
76128;BME280;64873;50.102;14.434;2023-09-19T06:04:07;98839.16;;;17.43;77.89
76128;BME280;64873;50.102;14.434;2023-09-19T06:06:33;98849.94;;;17.53;77.67
76128;BME280;64873;50.102;14.434;2023-09-19T06:09:04;98863.72;;;17.62;77.52
76128;BME280;64873;50.102;14.434;2023-09-19T06:11:34;98858.31;;;17.62;77.26
76128;BME280;64873;50.102;14.434;2023-09-19T06:14:03;98872.63;;;17.62;77.46
76128;BME280;64873;50.102;14.434;2023-09-19T06:16:31;98873.16;;;17.69;76.94
76128;BME280;64873;50.102;14.434;2023-09-19T06:18:57;98884.25;;;17.78;76.52
76128;BME280;64873;50.102;14.434;2023-09-19T06:21:23;98898.84;;;17.77;76.47
76128;BME280;64873;50.102;14.434;2023-09-19T06:23:49;98881.25;;;17.69;76.44
76128;BME280;64873;50.102;14.434;2023-09-19T06:26:14;98896.69;;;17.79;76.12
76128;BME280;64873;50.102;14.434;2023-09-19T06:28:40;98890.44;;;17.68;76.51
76128;BME280;64873;50.102;14.434;2023-09-19T06:31:06;98903.44;;;17.76;76.91
76128;BME280;64873;50.102;14.434;2023-09-19T06:33:35;98907.22;;;17.85;76.18
76128;BME280;64873;50.102;14.434;2023-09-19T06:36:04;98897.75;;;17.83;75.86
76128;BME280;64873;50.102;14.434;2023-09-19T06:38:30;98927.22;;;17.95;75.78
76128;BME280;64873;50.102;14.434;2023-09-19T06:40:56;98920.72;;;17.91;75.42
76128;BME280;64873;50.102;14.434;2023-09-19T06:43:22;98935.03;;;18.06;75.26
76128;BME280;64873;50.102;14.434;2023-09-19T06:45:49;98931.47;;;18.21;74.74
76128;BME280;64873;50.102;14.434;2023-09-19T06:48:15;98927.19;;;18.00;75.21
76128;BME280;64873;50.102;14.434;2023-09-19T06:50:41;98933.09;;;18.17;74.90
76128;BME280;64873;50.102;14.434;2023-09-19T06:53:06;98932.56;;;18.10;75.03
76128;BME280;64873;50.102;14.434;2023-09-19T06:55:32;98945.28;;;18.15;74.83
76128;BME280;64873;50.102;14.434;2023-09-19T06:57:57;98937.66;;;18.32;74.46
76128;BME280;64873;50.102;14.434;2023-09-19T07:00:24;98925.53;;;18.14;74.16
76128;BME280;64873;50.102;14.434;2023-09-19T07:05:27;98936.53;;;18.48;73.35
76128;BME280;64873;50.102;14.434;2023-09-19T07:07:53;98945.47;;;18.33;73.73
76128;BME280;64873;50.102;14.434;2023-09-19T07:10:20;98937.34;;;18.44;73.38
76128;BME280;64873;50.102;14.434;2023-09-19T07:12:57;98951.13;;;18.47;73.36
76128;BME280;64873;50.102;14.434;2023-09-19T07:15:23;98929.22;;;18.44;72.80
76128;BME280;64873;50.102;14.434;2023-09-19T07:17:51;98940.59;;;18.41;72.51
76128;BME280;64873;50.102;14.434;2023-09-19T07:20:18;98954.63;;;18.53;72.35
76128;BME280;64873;50.102;14.434;2023-09-19T07:22:44;98961.09;;;18.67;72.10
76128;BME280;64873;50.102;14.434;2023-09-19T07:25:09;98960.00;;;18.58;71.94
76128;BME280;64873;50.102;14.434;2023-09-19T07:27:34;98967.59;;;18.71;71.58
76128;BME280;64873;50.102;14.434;2023-09-19T07:30:00;98969.75;;;18.69;71.54
76128;BME280;64873;50.102;14.434;2023-09-19T07:32:25;98958.91;;;18.69;71.48
76128;BME280;64873;50.102;14.434;2023-09-19T07:34:51;98972.97;;;18.76;71.08
76128;BME280;64873;50.102;14.434;2023-09-19T07:37:16;98966.34;;;18.98;70.64
76128;BME280;64873;50.102;14.434;2023-09-19T07:39:42;98970.97;;;18.97;70.62
76128;BME280;64873;50.102;14.434;2023-09-19T07:42:08;98986.72;;;18.90;70.72
76128;BME280;64873;50.102;14.434;2023-09-19T07:44:35;98977.47;;;18.96;70.34
76128;BME280;64873;50.102;14.434;2023-09-19T07:47:01;98976.19;;;18.83;71.09
76128;BME280;64873;50.102;14.434;2023-09-19T07:49:28;98985.91;;;18.89;71.03
76128;BME280;64873;50.102;14.434;2023-09-19T07:51:54;98971.78;;;18.92;70.91
76128;BME280;64873;50.102;14.434;2023-09-19T07:54:20;98982.81;;;19.11;70.23
76128;BME280;64873;50.102;14.434;2023-09-19T07:56:46;98976.56;;;19.11;69.82
76128;BME280;64873;50.102;14.434;2023-09-19T07:59:11;98997.06;;;19.27;69.63
76128;BME280;64873;50.102;14.434;2023-09-19T08:01:37;98984.53;;;18.92;70.08
76128;BME280;64873;50.102;14.434;2023-09-19T08:04:02;98991.75;;;19.12;69.18
76128;BME280;64873;50.102;14.434;2023-09-19T08:06:28;98991.78;;;19.07;69.37
76128;BME280;64873;50.102;14.434;2023-09-19T08:08:55;98998.72;;;19.23;68.75
76128;BME280;64873;50.102;14.434;2023-09-19T08:11:22;98998.00;;;19.07;69.24
76128;BME280;64873;50.102;14.434;2023-09-19T08:13:49;99003.84;;;19.30;68.34
76128;BME280;64873;50.102;14.434;2023-09-19T08:16:15;98997.84;;;19.33;68.17
76128;BME280;64873;50.102;14.434;2023-09-19T08:18:47;99013.63;;;19.70;67.29
76128;BME280;64873;50.102;14.434;2023-09-19T08:21:13;99015.13;;;19.81;66.68
76128;BME280;64873;50.102;14.434;2023-09-19T08:23:41;99007.53;;;19.83;66.52
76128;BME280;64873;50.102;14.434;2023-09-19T08:26:07;99021.19;;;19.73;66.60
76128;BME280;64873;50.102;14.434;2023-09-19T08:28:36;99021.22;;;20.02;65.35
76128;BME280;64873;50.102;14.434;2023-09-19T08:31:06;99003.59;;;19.70;65.66
76128;BME280;64873;50.102;14.434;2023-09-19T08:33:33;99010.66;;;19.66;65.41
76128;BME280;64873;50.102;14.434;2023-09-19T08:35:59;99018.50;;;19.68;66.08
76128;BME280;64873;50.102;14.434;2023-09-19T08:38:25;98999.53;;;19.68;66.12
76128;BME280;64873;50.102;14.434;2023-09-19T08:40:57;99017.16;;;19.70;66.39
76128;BME280;64873;50.102;14.434;2023-09-19T08:43:22;99013.56;;;19.75;66.03
76128;BME280;64873;50.102;14.434;2023-09-19T08:45:49;99022.31;;;19.67;66.23
76128;BME280;64873;50.102;14.434;2023-09-19T08:48:34;99023.84;;;19.78;65.43
76128;BME280;64873;50.102;14.434;2023-09-19T08:51:03;99025.94;;;19.86;65.59
76128;BME280;64873;50.102;14.434;2023-09-19T08:53:36;99019.19;;;19.44;66.63
76128;BME280;64873;50.102;14.434;2023-09-19T08:56:08;99012.31;;;19.57;66.13
76128;BME280;64873;50.102;14.434;2023-09-19T08:58:50;99032.91;;;19.63;65.81
76128;BME280;64873;50.102;14.434;2023-09-19T09:01:18;99028.28;;;19.98;64.25
76128;BME280;64873;50.102;14.434;2023-09-19T09:03:51;99049.66;;;20.05;64.43
76128;BME280;64873;50.102;14.434;2023-09-19T09:06:17;99040.25;;;19.97;64.32
76128;BME280;64873;50.102;14.434;2023-09-19T09:08:44;99043.00;;;20.21;63.78
76128;BME280;64873;50.102;14.434;2023-09-19T09:11:10;99041.06;;;20.56;62.83
76128;BME280;64873;50.102;14.434;2023-09-19T09:13:36;99040.56;;;20.54;62.77
76128;BME280;64873;50.102;14.434;2023-09-19T09:16:07;99052.75;;;20.80;61.82
76128;BME280;64873;50.102;14.434;2023-09-19T09:18:33;99045.53;;;20.70;62.00
76128;BME280;64873;50.102;14.434;2023-09-19T09:20:58;99041.72;;;20.42;62.88
76128;BME280;64873;50.102;14.434;2023-09-19T09:23:24;99029.31;;;20.36;62.72
76128;BME280;64873;50.102;14.434;2023-09-19T09:25:55;99043.91;;;20.69;61.81
76128;BME280;64873;50.102;14.434;2023-09-19T09:28:29;99049.84;;;20.47;62.46
76128;BME280;64873;50.102;14.434;2023-09-19T09:30:56;99047.50;;;20.07;62.92
76128;BME280;64873;50.102;14.434;2023-09-19T09:33:23;99033.50;;;19.94;63.85
76128;BME280;64873;50.102;14.434;2023-09-19T09:35:54;99047.50;;;20.07;63.72
76128;BME280;64873;50.102;14.434;2023-09-19T09:38:26;99044.53;;;20.32;62.77
76128;BME280;64873;50.102;14.434;2023-09-19T09:40:58;99046.75;;;20.30;62.79
76128;BME280;64873;50.102;14.434;2023-09-19T09:43:38;99029.66;;;20.83;61.57
76128;BME280;64873;50.102;14.434;2023-09-19T09:54:12;99010.75;;;20.72;61.56
76128;BME280;64873;50.102;14.434;2023-09-19T09:57:01;99007.22;;;21.15;59.45
76128;BME280;64873;50.102;14.434;2023-09-19T09:59:56;99007.34;;;21.47;58.38
76128;BME280;64873;50.102;14.434;2023-09-19T10:02:40;99001.91;;;21.47;57.52
76128;BME280;64873;50.102;14.434;2023-09-19T10:07:52;99023.28;;;21.35;58.17
76128;BME280;64873;50.102;14.434;2023-09-19T10:10:34;99023.72;;;21.42;58.06
76128;BME280;64873;50.102;14.434;2023-09-19T10:13:19;99025.84;;;21.64;57.18
76128;BME280;64873;50.102;14.434;2023-09-19T10:15:49;99033.97;;;21.83;55.85
76128;BME280;64873;50.102;14.434;2023-09-19T10:18:21;99023.34;;;21.49;56.74
76128;BME280;64873;50.102;14.434;2023-09-19T10:20:48;99026.63;;;21.46;56.95
76128;BME280;64873;50.102;14.434;2023-09-19T10:23:20;99024.22;;;21.63;56.37
76128;BME280;64873;50.102;14.434;2023-09-19T10:25:52;99031.94;;;21.37;56.85
76128;BME280;64873;50.102;14.434;2023-09-19T10:28:18;99035.94;;;21.64;56.63
76128;BME280;64873;50.102;14.434;2023-09-19T10:30:51;99032.38;;;21.44;56.08
76128;BME280;64873;50.102;14.434;2023-09-19T10:33:19;99035.69;;;21.60;55.52
76128;BME280;64873;50.102;14.434;2023-09-19T10:35:47;99036.88;;;21.54;55.78
76128;BME280;64873;50.102;14.434;2023-09-19T10:38:18;99031.00;;;21.66;54.80
76128;BME280;64873;50.102;14.434;2023-09-19T10:40:52;99031.38;;;21.92;54.18
76128;BME280;64873;50.102;14.434;2023-09-19T10:43:19;99027.09;;;21.72;52.58
76128;BME280;64873;50.102;14.434;2023-09-19T10:45:48;99024.75;;;21.98;52.23
76128;BME280;64873;50.102;14.434;2023-09-19T10:48:19;99025.28;;;22.00;51.56
76128;BME280;64873;50.102;14.434;2023-09-19T10:54:01;99025.66;;;21.74;51.90
76128;BME280;64873;50.102;14.434;2023-09-19T10:56:32;99022.81;;;21.66;51.51
76128;BME280;64873;50.102;14.434;2023-09-19T10:59:09;99012.69;;;21.52;52.16
76128;BME280;64873;50.102;14.434;2023-09-19T11:01:48;99026.06;;;21.68;51.36
76128;BME280;64873;50.102;14.434;2023-09-19T11:09:53;99026.59;;;22.02;49.93
76128;BME280;64873;50.102;14.434;2023-09-19T11:14:54;99026.06;;;22.33;48.98
76128;BME280;64873;50.102;14.434;2023-09-19T11:30:39;99030.16;;;22.91;47.16
76128;BME280;64873;50.102;14.434;2023-09-19T11:36:12;99016.84;;;22.75;46.82
76128;BME280;64873;50.102;14.434;2023-09-19T11:43:50;99015.63;;;22.40;44.41
76128;BME280;64873;50.102;14.434;2023-09-19T11:46:16;99014.69;;;22.45;43.87
76128;BME280;64873;50.102;14.434;2023-09-19T11:48:48;99021.78;;;22.73;43.09
76128;BME280;64873;50.102;14.434;2023-09-19T11:51:24;99014.41;;;22.46;44.51
76128;BME280;64873;50.102;14.434;2023-09-19T11:53:55;98995.13;;;22.29;44.83
76128;BME280;64873;50.102;14.434;2023-09-19T11:56:23;99012.19;;;22.48;44.73
76128;BME280;64873;50.102;14.434;2023-09-19T11:58:52;99025.41;;;22.41;44.35
76128;BME280;64873;50.102;14.434;2023-09-19T12:01:33;99023.66;;;22.45;44.14
76128;BME280;64873;50.102;14.434;2023-09-19T12:04:02;98999.69;;;22.47;43.71
76128;BME280;64873;50.102;14.434;2023-09-19T12:06:30;99023.09;;;22.76;42.39
76128;BME280;64873;50.102;14.434;2023-09-19T12:08:57;99020.78;;;22.69;42.27
76128;BME280;64873;50.102;14.434;2023-09-19T12:11:29;99016.00;;;22.75;42.27
76128;BME280;64873;50.102;14.434;2023-09-19T12:13:58;99028.56;;;22.90;41.67
76128;BME280;64873;50.102;14.434;2023-09-19T12:16:26;99020.88;;;22.78;41.83
76128;BME280;64873;50.102;14.434;2023-09-19T12:18:55;99021.25;;;22.85;41.55
76128;BME280;64873;50.102;14.434;2023-09-19T12:21:31;99018.53;;;22.85;41.35
76128;BME280;64873;50.102;14.434;2023-09-19T12:24:12;99016.81;;;22.48;41.41
76128;BME280;64873;50.102;14.434;2023-09-19T12:26:45;98998.06;;;22.46;40.94
76128;BME280;64873;50.102;14.434;2023-09-19T12:29:18;99010.06;;;22.59;40.58
76128;BME280;64873;50.102;14.434;2023-09-19T12:31:59;98987.56;;;22.53;41.21
76128;BME280;64873;50.102;14.434;2023-09-19T12:34:30;98999.88;;;22.65;41.20
76128;BME280;64873;50.102;14.434;2023-09-19T12:39:45;99011.41;;;22.89;41.55
76128;BME280;64873;50.102;14.434;2023-09-19T12:42:22;99003.00;;;22.85;40.87
76128;BME280;64873;50.102;14.434;2023-09-19T12:44:50;99009.97;;;23.05;40.55
76128;BME280;64873;50.102;14.434;2023-09-19T12:47:22;98992.03;;;22.91;40.99
76128;BME280;64873;50.102;14.434;2023-09-19T12:50:10;99007.34;;;22.73;41.60
76128;BME280;64873;50.102;14.434;2023-09-19T12:52:49;98999.50;;;22.57;41.56
76128;BME280;64873;50.102;14.434;2023-09-19T12:55:30;98990.50;;;22.43;41.85
76128;BME280;64873;50.102;14.434;2023-09-19T12:58:14;99004.50;;;22.37;42.01
76128;BME280;64873;50.102;14.434;2023-09-19T13:00:45;98994.19;;;22.20;42.14
76128;BME280;64873;50.102;14.434;2023-09-19T13:08:31;98974.44;;;22.83;41.31
76128;BME280;64873;50.102;14.434;2023-09-19T13:13:33;98976.50;;;22.64;41.13
76128;BME280;64873;50.102;14.434;2023-09-19T13:15:59;98987.25;;;22.82;40.70
76128;BME280;64873;50.102;14.434;2023-09-19T13:18:26;98995.03;;;23.17;40.34
76128;BME280;64873;50.102;14.434;2023-09-19T13:21:08;98987.66;;;23.17;40.44
76128;BME280;64873;50.102;14.434;2023-09-19T13:23:42;98985.56;;;23.00;39.59
76128;BME280;64873;50.102;14.434;2023-09-19T13:26:09;98990.16;;;22.86;39.18
76128;BME280;64873;50.102;14.434;2023-09-19T13:28:34;98980.44;;;22.57;39.37
76128;BME280;64873;50.102;14.434;2023-09-19T13:31:00;98978.69;;;22.61;39.30
76128;BME280;64873;50.102;14.434;2023-09-19T13:33:26;98977.06;;;22.74;39.04
76128;BME280;64873;50.102;14.434;2023-09-19T13:35:52;98954.69;;;22.64;39.32
76128;BME280;64873;50.102;14.434;2023-09-19T13:38:18;98984.03;;;22.67;39.66
76128;BME280;64873;50.102;14.434;2023-09-19T13:40:47;98983.75;;;22.82;39.46
76128;BME280;64873;50.102;14.434;2023-09-19T13:43:13;98988.91;;;22.70;39.84
76128;BME280;64873;50.102;14.434;2023-09-19T13:45:39;98977.28;;;22.64;39.55
76128;BME280;64873;50.102;14.434;2023-09-19T13:48:07;98988.78;;;22.47;39.94
76128;BME280;64873;50.102;14.434;2023-09-19T13:50:34;98986.84;;;22.61;39.81
76128;BME280;64873;50.102;14.434;2023-09-19T13:53:00;98997.56;;;22.72;39.75
76128;BME280;64873;50.102;14.434;2023-09-19T13:55:25;98990.09;;;22.64;39.89
76128;BME280;64873;50.102;14.434;2023-09-19T13:57:51;98989.78;;;22.65;39.06
76128;BME280;64873;50.102;14.434;2023-09-19T14:00:20;98978.88;;;22.79;38.79
76128;BME280;64873;50.102;14.434;2023-09-19T14:02:45;98978.50;;;22.72;38.80
76128;BME280;64873;50.102;14.434;2023-09-19T14:05:12;98998.47;;;22.81;38.84
76128;BME280;64873;50.102;14.434;2023-09-19T14:07:42;98998.56;;;22.76;38.67